METAR Data
IDs: Format: Raw Decoded Include TAF

Data at: 0021 UTC 30 May 2020

METAR for:KLRJ (Le Mars Muni, IA, US)
Text:KLRJ 300015Z AUTO 34006KT 10SM CLR 22/05 A3015 RMK AO2
Temperature: 22.0°C ( 72°F)
Dewpoint: 5.0°C ( 41°F) [RH = 33%]
Pressure (altimeter):30.15 inches Hg (1021.1 mb)
Winds:from the NNW (340 degrees) at 7 MPH (6 knots; 3.1 m/s)
Visibility:10 or more sm (16+ km)
Ceiling:at least 12,000 feet AGL
Clouds:sky clear below 12,000 feet AGL
QC Flag:automated observation with no human augmentation